sensor_id;sensor_type;location;lat;lon;timestamp;P1;durP1;ratioP1;P2;durP2;ratioP2
47431;SDS011;33183;52.290;6.144;2023-03-04T00:01:59;7.93;;;3.63;;
47431;SDS011;33183;52.290;6.144;2023-03-04T00:04:24;8.98;;;4.13;;
47431;SDS011;33183;52.290;6.144;2023-03-04T00:06:50;6.68;;;3.72;;
47431;SDS011;33183;52.290;6.144;2023-03-04T00:09:15;8.38;;;3.88;;
47431;SDS011;33183;52.290;6.144;2023-03-04T00:11:40;8.88;;;3.75;;
47431;SDS011;33183;52.290;6.144;2023-03-04T00:14:05;6.97;;;4.18;;
47431;SDS011;33183;52.290;6.144;2023-03-04T00:16:31;7.93;;;3.65;;
47431;SDS011;33183;52.290;6.144;2023-03-04T00:18:56;7.55;;;3.55;;
47431;SDS011;33183;52.290;6.144;2023-03-04T00:21:22;6.40;;;3.10;;
47431;SDS011;33183;52.290;6.144;2023-03-04T00:23:48;5.32;;;3.03;;
47431;SDS011;33183;52.290;6.144;2023-03-04T00:26:13;6.60;;;3.20;;
47431;SDS011;33183;52.290;6.144;2023-03-04T00:28:39;6.18;;;3.05;;
47431;SDS011;33183;52.290;6.144;2023-03-04T00:31:05;5.80;;;3.00;;
47431;SDS011;33183;52.290;6.144;2023-03-04T00:33:30;9.20;;;4.30;;
47431;SDS011;33183;52.290;6.144;2023-03-04T00:35:56;7.07;;;2.80;;
47431;SDS011;33183;52.290;6.144;2023-03-04T00:38:21;6.32;;;3.17;;
47431;SDS011;33183;52.290;6.144;2023-03-04T00:40:47;7.35;;;3.75;;
47431;SDS011;33183;52.290;6.144;2023-03-04T00:43:12;7.10;;;3.42;;
47431;SDS011;33183;52.290;6.144;2023-03-04T00:45:37;6.40;;;3.33;;
47431;SDS011;33183;52.290;6.144;2023-03-04T00:48:02;6.38;;;3.15;;
47431;SDS011;33183;52.290;6.144;2023-03-04T00:50:31;5.35;;;2.92;;
47431;SDS011;33183;52.290;6.144;2023-03-04T00:52:56;6.70;;;3.13;;
47431;SDS011;33183;52.290;6.144;2023-03-04T00:55:21;5.93;;;3.33;;
47431;SDS011;33183;52.290;6.144;2023-03-04T00:57:46;8.20;;;3.55;;
47431;SDS011;33183;52.290;6.144;2023-03-04T01:00:12;5.60;;;3.25;;
47431;SDS011;33183;52.290;6.144;2023-03-04T01:02:38;6.05;;;2.67;;
47431;SDS011;33183;52.290;6.144;2023-03-04T01:05:03;5.90;;;3.00;;
47431;SDS011;33183;52.290;6.144;2023-03-04T01:07:29;7.00;;;3.13;;
47431;SDS011;33183;52.290;6.144;2023-03-04T01:09:54;6.82;;;3.55;;
47431;SDS011;33183;52.290;6.144;2023-03-04T01:12:20;6.53;;;3.75;;
47431;SDS011;33183;52.290;6.144;2023-03-04T01:14:45;5.03;;;2.88;;
47431;SDS011;33183;52.290;6.144;2023-03-04T01:17:10;4.80;;;2.42;;
47431;SDS011;33183;52.290;6.144;2023-03-04T01:19:36;5.13;;;3.13;;
47431;SDS011;33183;52.290;6.144;2023-03-04T01:22:01;5.97;;;2.78;;
47431;SDS011;33183;52.290;6.144;2023-03-04T01:24:26;5.53;;;2.97;;
47431;SDS011;33183;52.290;6.144;2023-03-04T01:26:53;6.40;;;2.70;;
47431;SDS011;33183;52.290;6.144;2023-03-04T01:29:19;6.00;;;2.92;;
47431;SDS011;33183;52.290;6.144;2023-03-04T01:31:44;8.30;;;3.33;;
47431;SDS011;33183;52.290;6.144;2023-03-04T01:34:09;5.72;;;2.35;;
47431;SDS011;33183;52.290;6.144;2023-03-04T01:36:35;6.47;;;2.40;;
47431;SDS011;33183;52.290;6.144;2023-03-04T01:39:00;5.53;;;2.78;;
47431;SDS011;33183;52.290;6.144;2023-03-04T01:41:25;6.85;;;2.88;;
47431;SDS011;33183;52.290;6.144;2023-03-04T01:43:51;6.20;;;3.00;;
47431;SDS011;33183;52.290;6.144;2023-03-04T01:46:18;6.03;;;2.95;;
47431;SDS011;33183;52.290;6.144;2023-03-04T01:48:45;5.20;;;3.17;;
47431;SDS011;33183;52.290;6.144;2023-03-04T01:51:12;4.60;;;2.50;;
47431;SDS011;33183;52.290;6.144;2023-03-04T01:53:39;5.05;;;2.33;;
47431;SDS011;33183;52.290;6.144;2023-03-04T01:58:39;4.15;;;2.75;;
47431;SDS011;33183;52.290;6.144;2023-03-04T02:01:04;4.63;;;2.47;;
47431;SDS011;33183;52.290;6.144;2023-03-04T02:03:29;3.97;;;1.88;;
47431;SDS011;33183;52.290;6.144;2023-03-04T02:05:55;4.47;;;2.50;;
47431;SDS011;33183;52.290;6.144;2023-03-04T02:08:21;3.60;;;2.13;;
47431;SDS011;33183;52.290;6.144;2023-03-04T02:10:47;5.80;;;2.40;;
47431;SDS011;33183;52.290;6.144;2023-03-04T02:13:13;7.20;;;2.30;;
47431;SDS011;33183;52.290;6.144;2023-03-04T02:15:39;5.90;;;2.65;;
47431;SDS011;33183;52.290;6.144;2023-03-04T02:18:38;4.70;;;2.30;;
47431;SDS011;33183;52.290;6.144;2023-03-04T02:24:35;4.03;;;2.28;;
47431;SDS011;33183;52.290;6.144;2023-03-04T02:26:39;7.65;;;2.47;;
47431;SDS011;33183;52.290;6.144;2023-03-04T02:29:07;5.67;;;2.77;;
47431;SDS011;33183;52.290;6.144;2023-03-04T02:36:35;5.05;;;2.42;;
47431;SDS011;33183;52.290;6.144;2023-03-04T02:39:02;3.85;;;2.03;;
47431;SDS011;33183;52.290;6.144;2023-03-04T02:41:38;3.85;;;2.13;;
47431;SDS011;33183;52.290;6.144;2023-03-04T02:44:08;4.50;;;2.33;;
47431;SDS011;33183;52.290;6.144;2023-03-04T02:46:40;6.05;;;2.60;;
47431;SDS011;33183;52.290;6.144;2023-03-04T02:49:05;5.65;;;2.25;;
47431;SDS011;33183;52.290;6.144;2023-03-04T02:51:31;4.65;;;2.13;;
47431;SDS011;33183;52.290;6.144;2023-03-04T02:53:56;4.43;;;2.05;;
47431;SDS011;33183;52.290;6.144;2023-03-04T02:56:21;4.85;;;2.50;;
47431;SDS011;33183;52.290;6.144;2023-03-04T02:58:46;5.18;;;2.13;;
47431;SDS011;33183;52.290;6.144;2023-03-04T03:01:12;4.05;;;2.30;;
47431;SDS011;33183;52.290;6.144;2023-03-04T03:03:37;4.55;;;2.10;;
47431;SDS011;33183;52.290;6.144;2023-03-04T03:06:02;4.55;;;2.55;;
47431;SDS011;33183;52.290;6.144;2023-03-04T03:08:31;4.28;;;1.83;;
47431;SDS011;33183;52.290;6.144;2023-03-04T03:10:56;5.20;;;2.20;;
47431;SDS011;33183;52.290;6.144;2023-03-04T03:13:21;4.38;;;2.13;;
47431;SDS011;33183;52.290;6.144;2023-03-04T03:15:47;4.15;;;2.15;;
47431;SDS011;33183;52.290;6.144;2023-03-04T03:18:12;5.78;;;2.17;;
47431;SDS011;33183;52.290;6.144;2023-03-04T03:20:37;4.53;;;2.17;;
47431;SDS011;33183;52.290;6.144;2023-03-04T03:23:05;4.28;;;2.20;;
47431;SDS011;33183;52.290;6.144;2023-03-04T03:25:31;2.85;;;1.60;;
47431;SDS011;33183;52.290;6.144;2023-03-04T03:27:56;3.60;;;2.00;;
47431;SDS011;33183;52.290;6.144;2023-03-04T03:30:21;4.88;;;2.22;;
47431;SDS011;33183;52.290;6.144;2023-03-04T03:32:47;4.05;;;1.95;;
47431;SDS011;33183;52.290;6.144;2023-03-04T03:35:12;5.78;;;2.50;;
47431;SDS011;33183;52.290;6.144;2023-03-04T03:37:37;3.25;;;1.88;;
47431;SDS011;33183;52.290;6.144;2023-03-04T03:40:05;3.88;;;2.15;;
47431;SDS011;33183;52.290;6.144;2023-03-04T03:42:31;5.22;;;2.08;;
47431;SDS011;33183;52.290;6.144;2023-03-04T03:44:56;3.85;;;2.42;;
47431;SDS011;33183;52.290;6.144;2023-03-04T03:47:27;2.70;;;1.48;;
47431;SDS011;33183;52.290;6.144;2023-03-04T03:49:53;4.25;;;1.88;;
47431;SDS011;33183;52.290;6.144;2023-03-04T03:52:18;4.28;;;1.83;;
47431;SDS011;33183;52.290;6.144;2023-03-04T03:54:43;4.47;;;2.20;;
47431;SDS011;33183;52.290;6.144;2023-03-04T03:57:08;4.25;;;2.17;;
47431;SDS011;33183;52.290;6.144;2023-03-04T03:59:34;2.95;;;1.70;;
47431;SDS011;33183;52.290;6.144;2023-03-04T04:01:59;4.70;;;1.73;;
47431;SDS011;33183;52.290;6.144;2023-03-04T04:04:25;5.63;;;2.00;;
47431;SDS011;33183;52.290;6.144;2023-03-04T04:06:50;3.03;;;1.55;;
47431;SDS011;33183;52.290;6.144;2023-03-04T04:09:15;3.65;;;1.90;;
47431;SDS011;33183;52.290;6.144;2023-03-04T04:11:41;3.83;;;1.83;;
47431;SDS011;33183;52.290;6.144;2023-03-04T04:14:06;5.22;;;1.80;;
47431;SDS011;33183;52.290;6.144;2023-03-04T04:16:33;4.13;;;2.20;;
47431;SDS011;33183;52.290;6.144;2023-03-04T04:18:58;4.03;;;1.83;;
47431;SDS011;33183;52.290;6.144;2023-03-04T04:21:24;3.20;;;1.75;;
47431;SDS011;33183;52.290;6.144;2023-03-04T04:23:49;4.43;;;1.85;;
47431;SDS011;33183;52.290;6.144;2023-03-04T04:26:14;3.90;;;1.70;;
47431;SDS011;33183;52.290;6.144;2023-03-04T04:28:40;3.67;;;1.80;;
47431;SDS011;33183;52.290;6.144;2023-03-04T04:31:06;4.00;;;1.95;;
47431;SDS011;33183;52.290;6.144;2023-03-04T04:33:32;2.92;;;1.90;;
47431;SDS011;33183;52.290;6.144;2023-03-04T04:35:58;3.83;;;1.60;;
47431;SDS011;33183;52.290;6.144;2023-03-04T04:38:25;1.95;;;1.33;;
47431;SDS011;33183;52.290;6.144;2023-03-04T04:40:50;3.80;;;1.80;;
47431;SDS011;33183;52.290;6.144;2023-03-04T04:43:15;2.78;;;1.70;;
47431;SDS011;33183;52.290;6.144;2023-03-04T04:45:41;3.75;;;1.85;;
47431;SDS011;33183;52.290;6.144;2023-03-04T04:48:06;2.35;;;1.58;;
47431;SDS011;33183;52.290;6.144;2023-03-04T04:50:32;2.60;;;1.50;;
47431;SDS011;33183;52.290;6.144;2023-03-04T04:52:57;3.03;;;1.60;;
47431;SDS011;33183;52.290;6.144;2023-03-04T04:55:22;2.63;;;1.40;;
47431;SDS011;33183;52.290;6.144;2023-03-04T04:57:48;4.03;;;1.60;;
47431;SDS011;33183;52.290;6.144;2023-03-04T05:00:13;3.20;;;1.73;;
47431;SDS011;33183;52.290;6.144;2023-03-04T05:02:39;3.55;;;1.60;;
47431;SDS011;33183;52.290;6.144;2023-03-04T05:05:05;3.65;;;1.90;;
47431;SDS011;33183;52.290;6.144;2023-03-04T05:07:31;4.45;;;1.60;;
47431;SDS011;33183;52.290;6.144;2023-03-04T05:09:56;2.90;;;1.45;;
47431;SDS011;33183;52.290;6.144;2023-03-04T05:12:22;4.13;;;1.63;;
47431;SDS011;33183;52.290;6.144;2023-03-04T05:14:47;3.58;;;1.45;;
47431;SDS011;33183;52.290;6.144;2023-03-04T05:17:12;3.45;;;1.45;;
47431;SDS011;33183;52.290;6.144;2023-03-04T05:19:38;4.38;;;1.80;;
47431;SDS011;33183;52.290;6.144;2023-03-04T05:22:03;3.17;;;1.65;;
47431;SDS011;33183;52.290;6.144;2023-03-04T05:24:28;2.45;;;1.50;;
47431;SDS011;33183;52.290;6.144;2023-03-04T05:26:54;3.47;;;1.30;;
47431;SDS011;33183;52.290;6.144;2023-03-04T05:29:19;3.13;;;1.35;;
47431;SDS011;33183;52.290;6.144;2023-03-04T05:31:44;3.95;;;1.70;;
47431;SDS011;33183;52.290;6.144;2023-03-04T05:34:09;3.08;;;1.85;;
47431;SDS011;33183;52.290;6.144;2023-03-04T05:36:35;2.65;;;1.30;;
47431;SDS011;33183;52.290;6.144;2023-03-04T05:39:00;3.45;;;1.45;;
47431;SDS011;33183;52.290;6.144;2023-03-04T05:41:25;2.67;;;1.40;;
47431;SDS011;33183;52.290;6.144;2023-03-04T05:43:51;4.05;;;1.88;;
47431;SDS011;33183;52.290;6.144;2023-03-04T05:46:17;2.58;;;1.50;;
47431;SDS011;33183;52.290;6.144;2023-03-04T05:48:43;3.90;;;1.80;;
47431;SDS011;33183;52.290;6.144;2023-03-04T05:51:09;4.68;;;1.88;;
47431;SDS011;33183;52.290;6.144;2023-03-04T05:53:34;2.75;;;1.25;;
47431;SDS011;33183;52.290;6.144;2023-03-04T05:56:08;3.35;;;1.75;;
47431;SDS011;33183;52.290;6.144;2023-03-04T05:58:34;2.78;;;1.50;;
47431;SDS011;33183;52.290;6.144;2023-03-04T06:00:59;3.80;;;1.77;;
47431;SDS011;33183;52.290;6.144;2023-03-04T06:03:25;3.17;;;1.63;;
47431;SDS011;33183;52.290;6.144;2023-03-04T06:05:50;4.07;;;1.80;;
47431;SDS011;33183;52.290;6.144;2023-03-04T06:08:15;3.03;;;1.35;;
47431;SDS011;33183;52.290;6.144;2023-03-04T06:10:41;4.53;;;1.92;;
47431;SDS011;33183;52.290;6.144;2023-03-04T06:13:06;2.10;;;1.35;;
47431;SDS011;33183;52.290;6.144;2023-03-04T06:15:32;3.28;;;1.50;;
47431;SDS011;33183;52.290;6.144;2023-03-04T06:17:57;3.20;;;1.45;;
47431;SDS011;33183;52.290;6.144;2023-03-04T06:20:23;2.58;;;1.55;;
47431;SDS011;33183;52.290;6.144;2023-03-04T06:22:48;3.28;;;1.27;;
47431;SDS011;33183;52.290;6.144;2023-03-04T06:25:14;2.65;;;1.17;;
47431;SDS011;33183;52.290;6.144;2023-03-04T06:27:39;3.05;;;1.30;;
47431;SDS011;33183;52.290;6.144;2023-03-04T06:30:05;1.92;;;1.00;;
47431;SDS011;33183;52.290;6.144;2023-03-04T06:32:31;2.92;;;1.30;;
47431;SDS011;33183;52.290;6.144;2023-03-04T06:34:56;4.65;;;1.50;;
47431;SDS011;33183;52.290;6.144;2023-03-04T06:37:21;2.70;;;1.45;;
47431;SDS011;33183;52.290;6.144;2023-03-04T06:39:47;3.20;;;1.27;;
47431;SDS011;33183;52.290;6.144;2023-03-04T06:42:12;2.45;;;1.25;;
47431;SDS011;33183;52.290;6.144;2023-03-04T06:44:37;4.30;;;1.83;;
47431;SDS011;33183;52.290;6.144;2023-03-04T06:47:03;4.85;;;1.38;;
47431;SDS011;33183;52.290;6.144;2023-03-04T06:49:28;4.53;;;1.38;;
47431;SDS011;33183;52.290;6.144;2023-03-04T06:51:54;3.85;;;1.55;;
47431;SDS011;33183;52.290;6.144;2023-03-04T06:54:19;3.90;;;1.30;;
47431;SDS011;33183;52.290;6.144;2023-03-04T06:56:44;5.70;;;1.20;;
47431;SDS011;33183;52.290;6.144;2023-03-04T06:59:10;3.10;;;1.48;;
47431;SDS011;33183;52.290;6.144;2023-03-04T07:01:35;2.80;;;1.10;;
47431;SDS011;33183;52.290;6.144;2023-03-04T07:04:02;3.60;;;1.23;;
47431;SDS011;33183;52.290;6.144;2023-03-04T07:06:27;4.00;;;1.30;;
47431;SDS011;33183;52.290;6.144;2023-03-04T07:08:53;2.63;;;1.10;;
47431;SDS011;33183;52.290;6.144;2023-03-04T07:11:18;3.38;;;1.38;;
47431;SDS011;33183;52.290;6.144;2023-03-04T07:13:45;3.83;;;1.48;;
47431;SDS011;33183;52.290;6.144;2023-03-04T07:16:12;2.70;;;0.98;;
47431;SDS011;33183;52.290;6.144;2023-03-04T07:18:39;3.22;;;1.20;;
47431;SDS011;33183;52.290;6.144;2023-03-04T07:21:04;3.35;;;1.10;;
47431;SDS011;33183;52.290;6.144;2023-03-04T07:23:30;2.70;;;1.35;;
47431;SDS011;33183;52.290;6.144;2023-03-04T07:25:56;2.33;;;1.10;;
47431;SDS011;33183;52.290;6.144;2023-03-04T07:28:21;4.03;;;1.73;;
47431;SDS011;33183;52.290;6.144;2023-03-04T07:30:46;1.70;;;0.82;;
47431;SDS011;33183;52.290;6.144;2023-03-04T07:33:12;2.63;;;1.15;;
47431;SDS011;33183;52.290;6.144;2023-03-04T07:35:38;2.67;;;1.42;;
47431;SDS011;33183;52.290;6.144;2023-03-04T07:38:04;3.47;;;1.05;;
47431;SDS011;33183;52.290;6.144;2023-03-04T07:40:29;3.58;;;1.30;;
47431;SDS011;33183;52.290;6.144;2023-03-04T07:42:55;2.15;;;1.00;;
47431;SDS011;33183;52.290;6.144;2023-03-04T07:45:21;1.92;;;0.98;;
47431;SDS011;33183;52.290;6.144;2023-03-04T07:47:46;1.42;;;0.85;;
47431;SDS011;33183;52.290;6.144;2023-03-04T07:50:12;2.63;;;1.00;;
47431;SDS011;33183;52.290;6.144;2023-03-04T07:52:39;2.38;;;1.08;;
47431;SDS011;33183;52.290;6.144;2023-03-04T07:55:05;2.03;;;0.90;;
47431;SDS011;33183;52.290;6.144;2023-03-04T07:57:30;3.67;;;1.10;;
47431;SDS011;33183;52.290;6.144;2023-03-04T07:59:56;2.72;;;0.93;;
47431;SDS011;33183;52.290;6.144;2023-03-04T08:02:21;2.13;;;1.20;;
47431;SDS011;33183;52.290;6.144;2023-03-04T08:04:46;2.67;;;1.17;;
47431;SDS011;33183;52.290;6.144;2023-03-04T08:07:12;2.03;;;0.90;;
47431;SDS011;33183;52.290;6.144;2023-03-04T08:09:37;2.63;;;1.10;;
47431;SDS011;33183;52.290;6.144;2023-03-04T08:12:02;3.05;;;1.13;;
47431;SDS011;33183;52.290;6.144;2023-03-04T08:14:28;2.72;;;0.95;;
47431;SDS011;33183;52.290;6.144;2023-03-04T08:16:53;1.55;;;0.70;;
47431;SDS011;33183;52.290;6.144;2023-03-04T08:19:18;1.95;;;1.25;;
47431;SDS011;33183;52.290;6.144;2023-03-04T08:21:43;1.77;;;0.80;;
47431;SDS011;33183;52.290;6.144;2023-03-04T08:24:09;3.42;;;0.90;;
47431;SDS011;33183;52.290;6.144;2023-03-04T08:26:42;2.15;;;1.00;;
47431;SDS011;33183;52.290;6.144;2023-03-04T08:29:10;2.30;;;1.10;;
47431;SDS011;33183;52.290;6.144;2023-03-04T08:31:40;2.63;;;1.30;;
47431;SDS011;33183;52.290;6.144;2023-03-04T08:34:06;3.55;;;1.20;;
47431;SDS011;33183;52.290;6.144;2023-03-04T08:36:32;1.65;;;0.77;;
47431;SDS011;33183;52.290;6.144;2023-03-04T08:38:57;1.70;;;0.90;;
47431;SDS011;33183;52.290;6.144;2023-03-04T08:41:23;1.25;;;0.73;;
47431;SDS011;33183;52.290;6.144;2023-03-04T08:43:50;2.17;;;0.80;;
47431;SDS011;33183;52.290;6.144;2023-03-04T08:46:15;3.13;;;1.10;;
47431;SDS011;33183;52.290;6.144;2023-03-04T08:48:40;1.85;;;1.00;;
47431;SDS011;33183;52.290;6.144;2023-03-04T08:51:07;1.55;;;0.80;;
47431;SDS011;33183;52.290;6.144;2023-03-04T08:53:33;2.33;;;1.00;;
47431;SDS011;33183;52.290;6.144;2023-03-04T08:55:58;3.35;;;1.05;;
47431;SDS011;33183;52.290;6.144;2023-03-04T08:58:24;1.02;;;0.70;;
47431;SDS011;33183;52.290;6.144;2023-03-04T09:00:49;2.58;;;1.23;;
47431;SDS011;33183;52.290;6.144;2023-03-04T09:03:16;1.58;;;0.88;;
47431;SDS011;33183;52.290;6.144;2023-03-04T09:05:43;0.90;;;0.60;;
47431;SDS011;33183;52.290;6.144;2023-03-04T09:08:10;2.00;;;0.90;;
47431;SDS011;33183;52.290;6.144;2023-03-04T09:10:35;1.80;;;0.90;;
47431;SDS011;33183;52.290;6.144;2023-03-04T09:13:00;4.22;;;1.00;;
47431;SDS011;33183;52.290;6.144;2023-03-04T09:15:26;1.42;;;0.80;;
47431;SDS011;33183;52.290;6.144;2023-03-04T09:17:51;1.95;;;0.90;;
47431;SDS011;33183;52.290;6.144;2023-03-04T09:20:16;1.83;;;0.80;;
47431;SDS011;33183;52.290;6.144;2023-03-04T09:22:42;1.13;;;0.68;;
47431;SDS011;33183;52.290;6.144;2023-03-04T09:25:07;1.25;;;0.73;;
47431;SDS011;33183;52.290;6.144;2023-03-04T09:27:33;1.88;;;0.90;;
47431;SDS011;33183;52.290;6.144;2023-03-04T09:29:58;1.55;;;0.90;;
47431;SDS011;33183;52.290;6.144;2023-03-04T09:32:24;1.00;;;0.50;;
47431;SDS011;33183;52.290;6.144;2023-03-04T09:34:49;2.00;;;0.88;;
47431;SDS011;33183;52.290;6.144;2023-03-04T09:37:14;2.80;;;1.00;;
47431;SDS011;33183;52.290;6.144;2023-03-04T09:39:40;1.35;;;0.60;;
47431;SDS011;33183;52.290;6.144;2023-03-04T09:42:05;1.50;;;0.63;;
47431;SDS011;33183;52.290;6.144;2023-03-04T09:44:33;2.42;;;1.10;;
47431;SDS011;33183;52.290;6.144;2023-03-04T09:49:27;1.73;;;0.70;;
47431;SDS011;33183;52.290;6.144;2023-03-04T09:56:58;1.40;;;0.60;;
47431;SDS011;33183;52.290;6.144;2023-03-04T10:02:00;2.15;;;0.77;;
47431;SDS011;33183;52.290;6.144;2023-03-04T10:04:46;1.75;;;0.82;;
47431;SDS011;33183;52.290;6.144;2023-03-04T10:07:14;0.90;;;0.60;;
47431;SDS011;33183;52.290;6.144;2023-03-04T10:09:49;2.03;;;0.70;;
47431;SDS011;33183;52.290;6.144;2023-03-04T10:12:16;2.22;;;1.08;;
47431;SDS011;33183;52.290;6.144;2023-03-04T10:19:50;2.40;;;0.60;;
47431;SDS011;33183;52.290;6.144;2023-03-04T10:22:19;1.17;;;0.70;;
47431;SDS011;33183;52.290;6.144;2023-03-04T10:24:55;0.90;;;0.60;;
47431;SDS011;33183;52.290;6.144;2023-03-04T10:27:21;0.80;;;0.60;;
47431;SDS011;33183;52.290;6.144;2023-03-04T10:29:48;1.25;;;0.55;;
47431;SDS011;33183;52.290;6.144;2023-03-04T10:32:18;2.13;;;0.65;;
47431;SDS011;33183;52.290;6.144;2023-03-04T10:34:44;1.20;;;0.70;;
47431;SDS011;33183;52.290;6.144;2023-03-04T10:37:10;2.13;;;0.60;;
47431;SDS011;33183;52.290;6.144;2023-03-04T10:39:45;1.48;;;0.60;;
47431;SDS011;33183;52.290;6.144;2023-03-04T10:44:40;0.70;;;0.50;;
47431;SDS011;33183;52.290;6.144;2023-03-04T10:47:10;1.27;;;0.60;;
47431;SDS011;33183;52.290;6.144;2023-03-04T10:49:58;2.00;;;0.70;;
47431;SDS011;33183;52.290;6.144;2023-03-04T10:54:55;1.38;;;0.63;;
47431;SDS011;33183;52.290;6.144;2023-03-04T10:57:33;1.40;;;0.63;;
47431;SDS011;33183;52.290;6.144;2023-03-04T11:00:45;0.85;;;0.50;;
47431;SDS011;33183;52.290;6.144;2023-03-04T11:03:11;2.53;;;0.70;;
47431;SDS011;33183;52.290;6.144;2023-03-04T11:05:51;0.75;;;0.60;;
47431;SDS011;33183;52.290;6.144;2023-03-04T11:08:41;2.08;;;0.75;;
47431;SDS011;33183;52.290;6.144;2023-03-04T11:11:23;1.27;;;0.60;;
47431;SDS011;33183;52.290;6.144;2023-03-04T11:13:55;1.02;;;0.50;;
47431;SDS011;33183;52.290;6.144;2023-03-04T11:16:25;1.23;;;0.70;;
47431;SDS011;33183;52.290;6.144;2023-03-04T11:18:53;2.45;;;0.77;;
47431;SDS011;33183;52.290;6.144;2023-03-04T11:21:30;1.20;;;0.98;;
47431;SDS011;33183;52.290;6.144;2023-03-04T11:24:00;1.67;;;0.77;;
47431;SDS011;33183;52.290;6.144;2023-03-04T11:26:35;1.35;;;0.43;;
47431;SDS011;33183;52.290;6.144;2023-03-04T11:29:06;1.30;;;0.85;;
47431;SDS011;33183;52.290;6.144;2023-03-04T11:31:42;1.33;;;0.60;;
47431;SDS011;33183;52.290;6.144;2023-03-04T11:37:23;1.48;;;0.55;;
47431;SDS011;33183;52.290;6.144;2023-03-04T11:39:55;1.67;;;0.70;;
47431;SDS011;33183;52.290;6.144;2023-03-04T11:45:12;1.30;;;0.77;;
47431;SDS011;33183;52.290;6.144;2023-03-04T11:53:31;2.35;;;0.60;;
47431;SDS011;33183;52.290;6.144;2023-03-04T11:56:08;1.10;;;0.50;;
47431;SDS011;33183;52.290;6.144;2023-03-04T12:01:17;1.50;;;0.70;;
47431;SDS011;33183;52.290;6.144;2023-03-04T12:12:21;2.10;;;0.98;;
47431;SDS011;33183;52.290;6.144;2023-03-04T12:15:01;1.35;;;0.93;;
47431;SDS011;33183;52.290;6.144;2023-03-04T12:18:04;2.45;;;0.57;;
47431;SDS011;33183;52.290;6.144;2023-03-04T12:26:22;1.55;;;0.65;;
47431;SDS011;33183;52.290;6.144;2023-03-04T12:31:31;1.80;;;0.95;;
47431;SDS011;33183;52.290;6.144;2023-03-04T12:34:05;2.40;;;0.90;;
47431;SDS011;33183;52.290;6.144;2023-03-04T12:36:47;1.20;;;0.70;;
47431;SDS011;33183;52.290;6.144;2023-03-04T12:39:23;2.38;;;0.73;;
47431;SDS011;33183;52.290;6.144;2023-03-04T12:44:30;3.17;;;1.30;;
47431;SDS011;33183;52.290;6.144;2023-03-04T12:49:46;2.92;;;0.93;;
47431;SDS011;33183;52.290;6.144;2023-03-04T12:52:31;3.67;;;1.05;;
47431;SDS011;33183;52.290;6.144;2023-03-04T12:55:03;3.45;;;1.52;;
47431;SDS011;33183;52.290;6.144;2023-03-04T12:57:35;1.52;;;0.82;;
47431;SDS011;33183;52.290;6.144;2023-03-04T13:00:15;2.85;;;0.90;;
47431;SDS011;33183;52.290;6.144;2023-03-04T13:08:04;2.33;;;0.80;;
47431;SDS011;33183;52.290;6.144;2023-03-04T13:10:31;3.22;;;0.95;;
47431;SDS011;33183;52.290;6.144;2023-03-04T13:12:59;1.98;;;0.68;;
47431;SDS011;33183;52.290;6.144;2023-03-04T13:15:30;2.25;;;0.90;;
47431;SDS011;33183;52.290;6.144;2023-03-04T13:17:57;1.08;;;0.57;;
47431;SDS011;33183;52.290;6.144;2023-03-04T13:22:57;2.80;;;0.80;;
47431;SDS011;33183;52.290;6.144;2023-03-04T13:25:41;2.25;;;0.70;;
47431;SDS011;33183;52.290;6.144;2023-03-04T13:43:59;1.85;;;0.80;;
47431;SDS011;33183;52.290;6.144;2023-03-04T13:56:36;2.33;;;1.10;;
47431;SDS011;33183;52.290;6.144;2023-03-04T14:03:59;2.28;;;0.70;;
47431;SDS011;33183;52.290;6.144;2023-03-04T14:06:27;1.92;;;0.80;;
47431;SDS011;33183;52.290;6.144;2023-03-04T14:08:54;2.20;;;0.65;;
47431;SDS011;33183;52.290;6.144;2023-03-04T14:11:25;1.98;;;0.75;;
47431;SDS011;33183;52.290;6.144;2023-03-04T14:13:52;2.00;;;0.82;;
47431;SDS011;33183;52.290;6.144;2023-03-04T14:16:20;3.05;;;0.85;;
47431;SDS011;33183;52.290;6.144;2023-03-04T14:19:01;3.05;;;0.85;;
47431;SDS011;33183;52.290;6.144;2023-03-04T14:21:28;2.17;;;0.68;;
47431;SDS011;33183;52.290;6.144;2023-03-04T14:24:01;1.30;;;0.80;;
47431;SDS011;33183;52.290;6.144;2023-03-04T14:26:35;2.70;;;0.90;;
47431;SDS011;33183;52.290;6.144;2023-03-04T14:29:01;2.35;;;0.80;;
47431;SDS011;33183;52.290;6.144;2023-03-04T14:31:28;1.40;;;0.60;;
47431;SDS011;33183;52.290;6.144;2023-03-04T14:33:55;2.85;;;0.98;;
47431;SDS011;33183;52.290;6.144;2023-03-04T14:36:26;2.30;;;0.80;;
47431;SDS011;33183;52.290;6.144;2023-03-04T14:38:53;3.00;;;0.82;;
47431;SDS011;33183;52.290;6.144;2023-03-04T14:41:22;1.80;;;0.70;;
47431;SDS011;33183;52.290;6.144;2023-03-04T14:46:39;1.95;;;0.70;;
47431;SDS011;33183;52.290;6.144;2023-03-04T14:49:11;1.65;;;0.70;;
47431;SDS011;33183;52.290;6.144;2023-03-04T14:51:39;2.85;;;0.73;;
47431;SDS011;33183;52.290;6.144;2023-03-04T14:54:23;1.73;;;0.82;;
47431;SDS011;33183;52.290;6.144;2023-03-04T14:56:59;2.55;;;1.05;;
47431;SDS011;33183;52.290;6.144;2023-03-04T14:59:30;1.73;;;0.63;;
47431;SDS011;33183;52.290;6.144;2023-03-04T15:05:09;4.18;;;1.27;;
47431;SDS011;33183;52.290;6.144;2023-03-04T15:08:01;1.33;;;0.70;;
47431;SDS011;33183;52.290;6.144;2023-03-04T15:13:06;3.42;;;1.13;;
47431;SDS011;33183;52.290;6.144;2023-03-04T15:15:34;1.77;;;0.88;;
47431;SDS011;33183;52.290;6.144;2023-03-04T15:20:53;2.20;;;0.68;;
47431;SDS011;33183;52.290;6.144;2023-03-04T15:23:19;1.52;;;0.70;;
47431;SDS011;33183;52.290;6.144;2023-03-04T15:25:44;3.15;;;1.00;;
47431;SDS011;33183;52.290;6.144;2023-03-04T15:28:14;1.75;;;0.70;;
47431;SDS011;33183;52.290;6.144;2023-03-04T15:30:41;1.45;;;0.95;;
47431;SDS011;33183;52.290;6.144;2023-03-04T15:33:09;4.30;;;1.00;;
47431;SDS011;33183;52.290;6.144;2023-03-04T15:35:35;2.63;;;1.02;;
47431;SDS011;33183;52.290;6.144;2023-03-04T15:38:01;1.88;;;0.70;;
47431;SDS011;33183;52.290;6.144;2023-03-04T15:40:31;1.42;;;0.63;;
47431;SDS011;33183;52.290;6.144;2023-03-04T15:43:03;2.45;;;0.70;;
47431;SDS011;33183;52.290;6.144;2023-03-04T15:45:31;1.38;;;0.60;;
47431;SDS011;33183;52.290;6.144;2023-03-04T15:48:00;3.33;;;1.00;;
47431;SDS011;33183;52.290;6.144;2023-03-04T15:50:28;2.43;;;0.90;;
47431;SDS011;33183;52.290;6.144;2023-03-04T15:52:57;3.08;;;0.93;;
47431;SDS011;33183;52.290;6.144;2023-03-04T15:55:25;2.00;;;1.05;;
47431;SDS011;33183;52.290;6.144;2023-03-04T15:57:52;1.10;;;0.80;;
47431;SDS011;33183;52.290;6.144;2023-03-04T16:00:19;2.30;;;0.80;;
47431;SDS011;33183;52.290;6.144;2023-03-04T16:02:45;2.22;;;0.90;;
47431;SDS011;33183;52.290;6.144;2023-03-04T16:05:11;2.88;;;0.82;;
47431;SDS011;33183;52.290;6.144;2023-03-04T16:07:37;2.22;;;0.80;;
47431;SDS011;33183;52.290;6.144;2023-03-04T16:10:06;2.08;;;0.82;;
47431;SDS011;33183;52.290;6.144;2023-03-04T16:12:33;2.00;;;0.82;;
47431;SDS011;33183;52.290;6.144;2023-03-04T16:14:58;2.58;;;1.40;;
47431;SDS011;33183;52.290;6.144;2023-03-04T16:17:23;3.00;;;1.00;;
47431;SDS011;33183;52.290;6.144;2023-03-04T16:19:49;1.60;;;0.80;;
47431;SDS011;33183;52.290;6.144;2023-03-04T16:22:14;2.20;;;1.00;;
47431;SDS011;33183;52.290;6.144;2023-03-04T16:24:42;4.80;;;1.55;;
47431;SDS011;33183;52.290;6.144;2023-03-04T16:27:14;2.00;;;1.10;;
47431;SDS011;33183;52.290;6.144;2023-03-04T16:29:40;1.75;;;1.05;;
47431;SDS011;33183;52.290;6.144;2023-03-04T16:32:06;4.13;;;1.00;;
47431;SDS011;33183;52.290;6.144;2023-03-04T16:34:32;3.55;;;1.20;;
47431;SDS011;33183;52.290;6.144;2023-03-04T16:36:57;3.17;;;0.90;;
47431;SDS011;33183;52.290;6.144;2023-03-04T16:39:23;2.67;;;0.95;;
47431;SDS011;33183;52.290;6.144;2023-03-04T16:41:50;3.65;;;1.30;;
47431;SDS011;33183;52.290;6.144;2023-03-04T16:44:16;3.03;;;1.10;;
47431;SDS011;33183;52.290;6.144;2023-03-04T16:46:41;3.47;;;1.13;;
47431;SDS011;33183;52.290;6.144;2023-03-04T16:49:07;3.15;;;1.08;;